Flight Track Log - Related Links

Times and Time Zones

All times are in EDT time to prevent confusion due to time zone crossing. See the SWA1496 flight status page for this flight to view local times or setup timezone preferences in your user account.

Time Position Orientation Groundspeed Altitude Reporting Facility
EDT Latitude Longitude Course Direction KTS MPH feet Rate Location/Type
Sat 05:42:28 PM 32.7536 -117.2789 291° West 200 230 3,100  Level Los Angeles Center
Sat 05:43:30 PM 32.6992 -117.3228 214° Southwest 248 285 7,000 3,823 Climbing Los Angeles Center
Sat 05:44:32 PM 32.6508 -117.2589 132° Southeast 258 297 11,000 3,000 Climbing Los Angeles Center
Sat 05:45:34 PM 32.6397 -117.1614 98° East 296 341 13,200 2,661 Climbing Los Angeles Center
Sat 05:46:36 PM 32.6200 -117.0503 102° East 331 381 16,500 3,048 Climbing Los Angeles Center
Sat 05:47:38 PM 32.6153 -116.9336 93° East 352 405 19,500 3,145 Climbing Los Angeles Center
Sat 05:48:40 PM 32.6292 -116.7894 83° East 368 423 23,000 2,855 Climbing Los Angeles Center
Sat 05:49:42 PM 32.6406 -116.6658 84° East 377 434 25,400 2,274 Climbing Los Angeles Center
Sat 05:50:44 PM 32.6536 -116.5383 83° East 390 449 27,700 1,887 Climbing Los Angeles Center
Sat 05:51:46 PM 32.6647 -116.4058 84° East 406 467 29,300 1,403 Climbing Los Angeles Center
Sat 05:52:48 PM 32.6819 -116.2364 83° East 438 504 30,600 1,403 Climbing Los Angeles Center
Sat 05:53:50 PM 32.6956 -116.0869 84° East 457 526 32,200 1,544 Climbing Los Angeles Center
Sat 05:55:04 PM 32.7281 -115.9431 75° East 453 521 34,100 1,533 Climbing Los Angeles Center
Sat 05:56:07 PM 32.7669 -115.7678 75° East 462 532 35,700 1,344 Climbing Los Angeles Center
Sat 05:57:09 PM 32.7772 -115.6133 85° East 469 540 36,900 1,161 Climbing Los Angeles Center
Sat 05:58:11 PM 32.7911 -115.4250 85° East 477 549 38,100 1,016 Climbing Los Angeles Center
Sat 05:59:13 PM 32.8014 -115.2664 86° East 483 556 39,000 435 Climbing Los Angeles Center
Sat 06:00:15 PM 32.8150 -115.1050 84° East 489 563 39,000  Level Los Angeles Center
Sat 06:01:17 PM 32.8269 -114.9453 85° East 487 560 39,000  Level Los Angeles Center
Sat 06:02:31 PM 32.8372 -114.7869 86° East 484 557 39,000  Level Los Angeles Center
Sat 06:03:33 PM 32.8492 -114.5967 86° East 486 559 39,000  Level Los Angeles Center
Sat 06:04:35 PM 32.8625 -114.4072 85° East 481 554 39,000  Level Los Angeles Center
Sat 06:05:37 PM 32.8719 -114.2506 86° East 477 549 39,000  Level Los Angeles Center
Sat 06:06:12 PM 32.8758 -114.1653 87° East 478 550 39,000  Level Albuquerque Center
Sat 06:07:13 PM 32.8861 -114.0089 85° East 476 548 39,000  Level Albuquerque Center
Sat 06:08:15 PM 32.8942 -113.8514 86° East 477 549 39,000  Level Albuquerque Center
Sat 06:09:16 PM 32.9014 -113.6928 87° East 478 550 39,000  Level Albuquerque Center
Sat 06:10:17 PM 32.9119 -113.5344 85° East 480 552 39,000  Level Albuquerque Center
Sat 06:11:19 PM 32.9206 -113.3756 86° East 479 551 39,000  Level Albuquerque Center
Sat 06:12:20 PM 32.9283 -113.2164 87° East 480 552 39,000  Level Albuquerque Center
Sat 06:13:22 PM 32.9383 -113.0247 86° East 480 552 39,000  Level Albuquerque Center
Sat 06:14:23 PM 32.9475 -112.8644 86° East 481 554 39,000  Level Albuquerque Center
Sat 06:15:25 PM 32.9547 -112.7022 87° East 486 559 39,000  Level Albuquerque Center
Sat 06:16:26 PM 32.9325 -112.5456 100° East 482 555 39,000  Level Albuquerque Center
Sat 06:17:28 PM 32.9039 -112.3872 102° East 487 560 39,000  Level Albuquerque Center
Sat 06:18:29 PM 32.8886 -112.2344 97° East 485 558 39,000  Level Albuquerque Center
Sat 06:19:31 PM 32.8714 -112.0789 97° East 482 555 39,000  Level Albuquerque Center
Sat 06:20:32 PM 32.8542 -111.9219 97° East 481 554 39,000  Level Albuquerque Center
Sat 06:21:33 PM 32.8317 -111.7319 98° East 485 558 39,000  Level Albuquerque Center
Sat 06:22:35 PM 32.8136 -111.5753 98° East 482 555 39,000  Level Albuquerque Center
Sat 06:23:36 PM 32.7944 -111.4175 98° East 485 558 39,000  Level Albuquerque Center
Sat 06:24:38 PM 32.7753 -111.2614 98° East 482 555 39,000  Level Albuquerque Center
Sat 06:25:39 PM 32.7569 -111.1025 98° East 485 558 39,000  Level Albuquerque Center
Sat 06:26:41 PM 32.7372 -110.9436 98° East 488 562 39,000  Level Albuquerque Center
Sat 06:27:42 PM 32.7169 -110.7839 99° East 490 564 39,000  Level Albuquerque Center
Sat 06:28:43 PM 32.6950 -110.6069 98° East 488 562 39,000  Level Albuquerque Center
Sat 06:29:45 PM 32.6744 -110.4489 99° East 490 564 39,000  Level Albuquerque Center
Sat 06:30:46 PM 32.6533 -110.2917 99° East 487 560 39,000  Level Albuquerque Center
Sat 06:31:48 PM 32.6333 -110.1344 99° East 488 562 39,000  Level Albuquerque Center
Sat 06:32:49 PM 32.6083 -109.9467 99° East 486 559 39,000 -49 Level Albuquerque Center
Sat 06:33:51 PM 32.5847 -109.7908 100° East 486 559 38,900 -537 Descending Albuquerque Center
Sat 06:34:52 PM 32.5467 -109.6392 107° East 486 559 37,900 -934 Descending Albuquerque Center
Sat 06:35:53 PM 32.5075 -109.4878 107° East 487 560 37,000 -927 Descending Albuquerque Center
Sat 06:36:55 PM 32.4717 -109.3394 106° East 480 552 36,000 -1,024 Descending Albuquerque Center
Sat 06:37:56 PM 32.4444 -109.1556 100° East 481 554 34,900 -1,033 Descending Albuquerque Center
Sat 06:38:57 PM 32.4281 -108.9989 97° East 485 558 33,900 -927 Descending Albuquerque Center
Sat 06:39:59 PM 32.4128 -108.8447 97° East 482 555 33,000 -439 Descending Albuquerque Center
Sat 06:41:00 PM 32.3972 -108.6914 97° East 478 550 33,000  Level Albuquerque Center
Sat 06:42:02 PM 32.3806 -108.5369 97° East 479 551 33,000  Level Albuquerque Center
Sat 06:43:03 PM 32.3608 -108.3644 98° East 482 555 33,000  Level Albuquerque Center
Sat 06:44:04 PM 32.3431 -108.2081 98° East 482 555 33,000  Level Albuquerque Center
Sat 06:45:05 PM 32.3256 -108.0511 97° East 483 556 33,000 -927 Level Albuquerque Center
Sat 06:46:07 PM 32.3092 -107.8939 97° East 483 556 31,100 -2,439 Descending Albuquerque Center
Sat 06:47:08 PM 32.2900 -107.7353 98° East 489 563 28,000 -2,852 Descending Albuquerque Center
Sat 06:48:09 PM 32.2639 -107.5544 100° East 474 545 25,300 -2,244 Descending Albuquerque Center
Sat 06:49:11 PM 32.2356 -107.4364 106° East 451 519 23,400 -2,195 Descending Albuquerque Center
Sat 06:50:12 PM 32.1961 -107.2769 106° East 429 494 20,800 -2,268 Descending Albuquerque Center
Sat 06:51:18 PM 32.1653 -107.1372 105° East 402 463 18,600 -1,951 Descending Albuquerque Center
Sat 06:52:15 PM 32.1419 -107.0372 105° East 397 457 16,800 -1,983 Descending Albuquerque Center
Sat 06:53:16 PM 32.1131 -106.9214 106° East 379 436 14,700 -2,016 Descending Albuquerque Center
Sat 06:54:17 PM 32.0858 -106.8092 106° East 362 417 12,700 -2,211 Descending Albuquerque Center
Sat 06:54:32 PM 32.0739 -106.7636 107° East 351 404 11,900 -2,361 Descending Albuquerque Center
Sat 06:55:18 PM 32.0542 -106.6797 105° East 346 398 10,300 -1,672 Descending Albuquerque Center
Sat 06:55:33 PM 32.0461 -106.6553 111° Southeast 341 392 10,200 -632 Descending Albuquerque Center
Sat 06:56:34 PM 32.0228 -106.5608 106° East 294 338 9,500 -595 Descending Albuquerque Center
Sat 06:57:34 PM 31.9992 -106.4767 108° East 259 298 9,000 -611 Descending Albuquerque Center
Sat 06:58:22 PM 31.9739 -106.4231 119° Southeast 253 291 8,400 -985 Descending Albuquerque Center
Sat 06:58:41 PM 31.9589 -106.3964 124° Southeast 238 274 7,900 -1,161 Descending Albuquerque Center
Sat 06:59:24 PM 31.9411 -106.3586 119° Southeast 229 264 7,200 -1,180 Descending Albuquerque Center
Sat 06:59:42 PM 31.9289 -106.3364 123° Southeast 202 232 6,700 -1,082 Descending Albuquerque Center
Sat 07:00:25 PM 31.9106 -106.3089 128° Southeast 185 213 6,100 -900 Descending Albuquerque Center
Sat 07:00:42 PM 31.8908 -106.3033 167° South 169 194 5,800 -885 Descending Albuquerque Center
Sat 07:01:26 PM 31.8631 -106.3131 197° South 171 197 5,200 -885 Descending Albuquerque Center
Sat 07:01:43 PM 31.8506 -106.3283 226° Southwest 167 192 4,900 -885 Descending Albuquerque Center
Sat 07:02:27 PM 31.8344 -106.3522 232° Southwest 156 180 4,300 -566 Descending Albuquerque Center
Sat 07:03:29 PM 31.8061 -106.3917 230° Southwest 149 171 3,900 -387 Descending Albuquerque Center
Sat 07:05:00 PM 31.8072 -106.3764 90° East  Level Estimated
Sat 07:12:00 PM 31.8072 -106.3764 90° East  Level Estimated
Sat 07:13:00 PM 31.8072 -106.3764 90° East  Level Estimated
Sat 07:14:00 PM 31.8072 -106.3764 90° East  Level Estimated
Sat 07:15:00 PM 31.8072 -106.3764 90° East  Level Estimated

Login

Don't have an account? Register now (free) for customized features, flight alerts, and more!